sensor_id;sensor_type;location;lat;lon;timestamp;P1;durP1;ratioP1;P2;durP2;ratioP2
31724;SDS011;18306;40.960;14.836;2023-05-31T00:02:25;3.38;;;2.58;;
31724;SDS011;18306;40.960;14.836;2023-05-31T00:04:52;9.05;;;2.33;;
31724;SDS011;18306;40.960;14.836;2023-05-31T00:07:19;5.53;;;2.30;;
31724;SDS011;18306;40.960;14.836;2023-05-31T00:09:46;3.30;;;2.05;;
31724;SDS011;18306;40.960;14.836;2023-05-31T00:12:13;4.55;;;2.30;;
31724;SDS011;18306;40.960;14.836;2023-05-31T00:14:40;4.35;;;2.25;;
31724;SDS011;18306;40.960;14.836;2023-05-31T00:17:07;2.72;;;1.73;;
31724;SDS011;18306;40.960;14.836;2023-05-31T00:19:34;6.20;;;3.03;;
31724;SDS011;18306;40.960;14.836;2023-05-31T00:22:01;9.45;;;4.72;;
31724;SDS011;18306;40.960;14.836;2023-05-31T00:24:28;11.85;;;5.95;;
31724;SDS011;18306;40.960;14.836;2023-05-31T00:26:56;27.58;;;5.13;;
31724;SDS011;18306;40.960;14.836;2023-05-31T00:29:23;18.02;;;4.35;;
31724;SDS011;18306;40.960;14.836;2023-05-31T00:31:52;8.18;;;4.40;;
31724;SDS011;18306;40.960;14.836;2023-05-31T00:34:19;8.68;;;4.97;;
31724;SDS011;18306;40.960;14.836;2023-05-31T00:36:46;8.10;;;4.72;;
31724;SDS011;18306;40.960;14.836;2023-05-31T00:39:13;16.35;;;5.45;;
31724;SDS011;18306;40.960;14.836;2023-05-31T00:41:41;10.15;;;5.10;;
31724;SDS011;18306;40.960;14.836;2023-05-31T00:44:08;13.00;;;5.13;;
31724;SDS011;18306;40.960;14.836;2023-05-31T00:46:36;15.23;;;5.25;;
31724;SDS011;18306;40.960;14.836;2023-05-31T00:49:04;9.65;;;4.93;;
31724;SDS011;18306;40.960;14.836;2023-05-31T00:51:32;11.40;;;5.22;;
31724;SDS011;18306;40.960;14.836;2023-05-31T00:54:00;10.68;;;4.72;;
31724;SDS011;18306;40.960;14.836;2023-05-31T00:56:28;6.10;;;4.25;;
31724;SDS011;18306;40.960;14.836;2023-05-31T00:58:56;10.70;;;4.82;;
31724;SDS011;18306;40.960;14.836;2023-05-31T01:01:25;16.15;;;4.40;;
31724;SDS011;18306;40.960;14.836;2023-05-31T01:03:55;13.23;;;5.72;;
31724;SDS011;18306;40.960;14.836;2023-05-31T01:06:23;11.52;;;5.25;;
31724;SDS011;18306;40.960;14.836;2023-05-31T01:08:51;7.28;;;4.68;;
31724;SDS011;18306;40.960;14.836;2023-05-31T01:16:57;8.13;;;5.18;;
31724;SDS011;18306;40.960;14.836;2023-05-31T01:19:45;10.32;;;5.28;;
31724;SDS011;18306;40.960;14.836;2023-05-31T01:22:20;8.52;;;4.57;;
31724;SDS011;18306;40.960;14.836;2023-05-31T01:27:48;12.80;;;5.15;;
31724;SDS011;18306;40.960;14.836;2023-05-31T01:30:18;7.57;;;4.43;;
31724;SDS011;18306;40.960;14.836;2023-05-31T01:32:47;11.27;;;5.53;;
31724;SDS011;18306;40.960;14.836;2023-05-31T01:35:17;9.23;;;5.50;;
31724;SDS011;18306;40.960;14.836;2023-05-31T01:37:44;7.80;;;4.70;;
31724;SDS011;18306;40.960;14.836;2023-05-31T01:40:11;14.02;;;6.20;;
31724;SDS011;18306;40.960;14.836;2023-05-31T01:42:43;8.10;;;4.53;;
31724;SDS011;18306;40.960;14.836;2023-05-31T01:45:14;15.98;;;4.70;;
31724;SDS011;18306;40.960;14.836;2023-05-31T01:47:42;11.30;;;5.75;;
31724;SDS011;18306;40.960;14.836;2023-05-31T01:50:12;11.32;;;5.10;;
31724;SDS011;18306;40.960;14.836;2023-05-31T01:52:40;8.20;;;5.18;;
31724;SDS011;18306;40.960;14.836;2023-05-31T01:55:08;8.45;;;4.60;;
31724;SDS011;18306;40.960;14.836;2023-05-31T01:57:37;9.00;;;4.85;;
31724;SDS011;18306;40.960;14.836;2023-05-31T02:00:07;16.63;;;7.38;;
31724;SDS011;18306;40.960;14.836;2023-05-31T02:02:40;11.57;;;5.50;;
31724;SDS011;18306;40.960;14.836;2023-05-31T02:05:11;7.93;;;5.07;;
31724;SDS011;18306;40.960;14.836;2023-05-31T02:07:40;13.07;;;5.43;;
31724;SDS011;18306;40.960;14.836;2023-05-31T02:10:08;9.02;;;5.30;;
31724;SDS011;18306;40.960;14.836;2023-05-31T02:12:37;9.57;;;5.15;;
31724;SDS011;18306;40.960;14.836;2023-05-31T02:15:04;9.98;;;4.53;;
31724;SDS011;18306;40.960;14.836;2023-05-31T02:17:39;11.93;;;5.18;;
31724;SDS011;18306;40.960;14.836;2023-05-31T02:20:09;7.80;;;5.05;;
31724;SDS011;18306;40.960;14.836;2023-05-31T02:22:40;12.82;;;4.43;;
31724;SDS011;18306;40.960;14.836;2023-05-31T02:25:12;11.82;;;5.43;;
31724;SDS011;18306;40.960;14.836;2023-05-31T02:27:41;10.23;;;5.35;;
31724;SDS011;18306;40.960;14.836;2023-05-31T02:30:09;8.15;;;4.90;;
31724;SDS011;18306;40.960;14.836;2023-05-31T02:32:36;6.82;;;4.43;;
31724;SDS011;18306;40.960;14.836;2023-05-31T02:35:05;10.25;;;5.00;;
31724;SDS011;18306;40.960;14.836;2023-05-31T02:37:34;8.68;;;4.95;;
31724;SDS011;18306;40.960;14.836;2023-05-31T02:40:02;6.90;;;5.00;;
31724;SDS011;18306;40.960;14.836;2023-05-31T02:42:35;10.55;;;5.60;;
31724;SDS011;18306;40.960;14.836;2023-05-31T02:45:02;9.57;;;5.22;;
31724;SDS011;18306;40.960;14.836;2023-05-31T02:47:30;6.95;;;3.90;;
31724;SDS011;18306;40.960;14.836;2023-05-31T02:49:57;10.43;;;5.40;;
31724;SDS011;18306;40.960;14.836;2023-05-31T02:52:26;9.48;;;5.50;;
31724;SDS011;18306;40.960;14.836;2023-05-31T02:55:25;7.68;;;5.07;;
31724;SDS011;18306;40.960;14.836;2023-05-31T02:58:28;7.68;;;5.15;;
31724;SDS011;18306;40.960;14.836;2023-05-31T03:01:24;9.73;;;4.63;;
31724;SDS011;18306;40.960;14.836;2023-05-31T03:04:11;8.13;;;4.95;;
31724;SDS011;18306;40.960;14.836;2023-05-31T03:06:38;11.27;;;5.65;;
31724;SDS011;18306;40.960;14.836;2023-05-31T03:09:06;8.90;;;5.10;;
31724;SDS011;18306;40.960;14.836;2023-05-31T03:11:35;13.90;;;6.07;;
31724;SDS011;18306;40.960;14.836;2023-05-31T03:14:02;8.15;;;4.72;;
31724;SDS011;18306;40.960;14.836;2023-05-31T03:16:44;9.40;;;4.63;;
31724;SDS011;18306;40.960;14.836;2023-05-31T03:19:12;8.52;;;4.45;;
31724;SDS011;18306;40.960;14.836;2023-05-31T03:21:40;8.07;;;4.07;;
31724;SDS011;18306;40.960;14.836;2023-05-31T03:24:07;9.98;;;4.57;;
31724;SDS011;18306;40.960;14.836;2023-05-31T03:26:36;8.40;;;4.45;;
31724;SDS011;18306;40.960;14.836;2023-05-31T03:29:03;12.93;;;3.80;;
31724;SDS011;18306;40.960;14.836;2023-05-31T03:31:30;10.45;;;4.35;;
31724;SDS011;18306;40.960;14.836;2023-05-31T03:33:58;8.35;;;4.07;;
31724;SDS011;18306;40.960;14.836;2023-05-31T03:36:26;11.27;;;4.10;;
31724;SDS011;18306;40.960;14.836;2023-05-31T03:38:53;7.57;;;4.22;;
31724;SDS011;18306;40.960;14.836;2023-05-31T03:41:21;9.30;;;4.40;;
31724;SDS011;18306;40.960;14.836;2023-05-31T03:43:48;6.78;;;4.22;;
31724;SDS011;18306;40.960;14.836;2023-05-31T03:46:17;7.80;;;3.95;;
31724;SDS011;18306;40.960;14.836;2023-05-31T03:48:44;5.88;;;4.07;;
31724;SDS011;18306;40.960;14.836;2023-05-31T03:51:11;7.75;;;3.60;;
31724;SDS011;18306;40.960;14.836;2023-05-31T03:53:38;6.85;;;3.90;;
31724;SDS011;18306;40.960;14.836;2023-05-31T03:56:05;7.43;;;4.65;;
31724;SDS011;18306;40.960;14.836;2023-05-31T03:58:32;8.10;;;3.65;;
31724;SDS011;18306;40.960;14.836;2023-05-31T04:01:00;9.98;;;3.65;;
31724;SDS011;18306;40.960;14.836;2023-05-31T04:03:28;9.38;;;5.03;;
31724;SDS011;18306;40.960;14.836;2023-05-31T04:05:55;8.02;;;3.78;;
31724;SDS011;18306;40.960;14.836;2023-05-31T04:08:22;10.90;;;4.38;;
31724;SDS011;18306;40.960;14.836;2023-05-31T04:10:49;11.02;;;3.42;;
31724;SDS011;18306;40.960;14.836;2023-05-31T04:13:17;5.53;;;3.42;;
31724;SDS011;18306;40.960;14.836;2023-05-31T04:15:44;8.48;;;3.67;;
31724;SDS011;18306;40.960;14.836;2023-05-31T04:18:11;6.53;;;2.90;;
31724;SDS011;18306;40.960;14.836;2023-05-31T04:20:38;7.25;;;3.17;;
31724;SDS011;18306;40.960;14.836;2023-05-31T04:23:06;16.08;;;5.18;;
31724;SDS011;18306;40.960;14.836;2023-05-31T04:25:33;5.20;;;3.28;;
31724;SDS011;18306;40.960;14.836;2023-05-31T04:28:00;5.65;;;3.45;;
31724;SDS011;18306;40.960;14.836;2023-05-31T04:30:28;6.57;;;3.53;;
31724;SDS011;18306;40.960;14.836;2023-05-31T04:32:55;8.88;;;3.63;;
31724;SDS011;18306;40.960;14.836;2023-05-31T04:35:22;9.43;;;4.72;;
31724;SDS011;18306;40.960;14.836;2023-05-31T04:37:50;5.53;;;3.25;;
31724;SDS011;18306;40.960;14.836;2023-05-31T04:40:19;3.83;;;2.78;;
31724;SDS011;18306;40.960;14.836;2023-05-31T04:42:46;4.70;;;2.40;;
31724;SDS011;18306;40.960;14.836;2023-05-31T04:45:24;5.40;;;3.03;;
31724;SDS011;18306;40.960;14.836;2023-05-31T04:47:52;5.95;;;3.20;;
31724;SDS011;18306;40.960;14.836;2023-05-31T04:50:20;6.20;;;2.97;;
31724;SDS011;18306;40.960;14.836;2023-05-31T04:52:47;4.47;;;3.10;;
31724;SDS011;18306;40.960;14.836;2023-05-31T04:55:17;7.53;;;2.85;;
31724;SDS011;18306;40.960;14.836;2023-05-31T04:57:44;5.20;;;3.38;;
31724;SDS011;18306;40.960;14.836;2023-05-31T05:00:13;4.40;;;2.65;;
31724;SDS011;18306;40.960;14.836;2023-05-31T05:03:05;5.40;;;3.10;;
31724;SDS011;18306;40.960;14.836;2023-05-31T05:05:32;7.88;;;4.05;;
31724;SDS011;18306;40.960;14.836;2023-05-31T05:07:59;7.13;;;3.55;;
31724;SDS011;18306;40.960;14.836;2023-05-31T05:10:27;8.27;;;2.92;;
31724;SDS011;18306;40.960;14.836;2023-05-31T05:12:54;10.48;;;5.03;;
31724;SDS011;18306;40.960;14.836;2023-05-31T05:15:21;6.50;;;4.18;;
31724;SDS011;18306;40.960;14.836;2023-05-31T05:17:48;9.07;;;4.43;;
31724;SDS011;18306;40.960;14.836;2023-05-31T05:20:15;13.25;;;4.90;;
31724;SDS011;18306;40.960;14.836;2023-05-31T05:27:14;5.95;;;2.78;;
31724;SDS011;18306;40.960;14.836;2023-05-31T05:58:15;3.47;;;2.13;;
31724;SDS011;18306;40.960;14.836;2023-05-31T06:01:03;5.93;;;3.15;;
31724;SDS011;18306;40.960;14.836;2023-05-31T06:03:34;5.20;;;2.65;;
31724;SDS011;18306;40.960;14.836;2023-05-31T06:10:45;4.53;;;2.20;;
31724;SDS011;18306;40.960;14.836;2023-05-31T06:30:41;3.95;;;2.45;;
31724;SDS011;18306;40.960;14.836;2023-05-31T06:37:49;5.53;;;3.72;;
31724;SDS011;18306;40.960;14.836;2023-05-31T06:40:20;5.93;;;3.67;;
31724;SDS011;18306;40.960;14.836;2023-05-31T06:42:47;7.88;;;4.10;;
31724;SDS011;18306;40.960;14.836;2023-05-31T06:45:14;9.60;;;4.63;;
31724;SDS011;18306;40.960;14.836;2023-05-31T06:47:42;8.52;;;4.72;;
31724;SDS011;18306;40.960;14.836;2023-05-31T06:50:15;6.60;;;4.13;;
31724;SDS011;18306;40.960;14.836;2023-05-31T06:52:47;10.75;;;4.97;;
31724;SDS011;18306;40.960;14.836;2023-05-31T06:55:34;12.27;;;4.88;;
31724;SDS011;18306;40.960;14.836;2023-05-31T06:58:02;10.82;;;5.60;;
31724;SDS011;18306;40.960;14.836;2023-05-31T07:00:32;8.98;;;4.95;;
31724;SDS011;18306;40.960;14.836;2023-05-31T07:02:59;9.82;;;5.40;;
31724;SDS011;18306;40.960;14.836;2023-05-31T07:05:28;9.15;;;4.55;;
31724;SDS011;18306;40.960;14.836;2023-05-31T07:07:58;8.25;;;3.80;;
31724;SDS011;18306;40.960;14.836;2023-05-31T07:10:27;6.43;;;4.18;;
31724;SDS011;18306;40.960;14.836;2023-05-31T07:12:53;9.18;;;4.47;;
31724;SDS011;18306;40.960;14.836;2023-05-31T07:15:21;5.47;;;3.25;;
31724;SDS011;18306;40.960;14.836;2023-05-31T07:17:48;10.18;;;3.42;;
31724;SDS011;18306;40.960;14.836;2023-05-31T07:20:15;9.45;;;2.65;;
31724;SDS011;18306;40.960;14.836;2023-05-31T07:22:42;5.68;;;2.72;;
31724;SDS011;18306;40.960;14.836;2023-05-31T07:25:10;3.53;;;2.20;;
31724;SDS011;18306;40.960;14.836;2023-05-31T07:27:36;4.30;;;2.80;;
31724;SDS011;18306;40.960;14.836;2023-05-31T07:30:04;3.22;;;2.05;;
31724;SDS011;18306;40.960;14.836;2023-05-31T07:32:31;8.68;;;2.88;;
31724;SDS011;18306;40.960;14.836;2023-05-31T07:34:58;3.00;;;2.00;;
31724;SDS011;18306;40.960;14.836;2023-05-31T07:37:25;3.65;;;2.38;;
31724;SDS011;18306;40.960;14.836;2023-05-31T07:39:52;2.05;;;1.50;;
31724;SDS011;18306;40.960;14.836;2023-05-31T07:42:19;7.40;;;2.28;;
31724;SDS011;18306;40.960;14.836;2023-05-31T07:44:47;2.83;;;2.20;;
31724;SDS011;18306;40.960;14.836;2023-05-31T07:47:16;6.60;;;1.85;;
31724;SDS011;18306;40.960;14.836;2023-05-31T07:49:45;3.13;;;1.83;;
31724;SDS011;18306;40.960;14.836;2023-05-31T07:52:12;1.95;;;1.35;;
31724;SDS011;18306;40.960;14.836;2023-05-31T07:54:41;4.35;;;1.35;;
31724;SDS011;18306;40.960;14.836;2023-05-31T07:57:08;1.75;;;1.42;;
31724;SDS011;18306;40.960;14.836;2023-05-31T07:59:35;3.08;;;1.67;;
31724;SDS011;18306;40.960;14.836;2023-05-31T08:02:02;3.88;;;1.73;;
31724;SDS011;18306;40.960;14.836;2023-05-31T08:04:30;3.80;;;1.73;;
31724;SDS011;18306;40.960;14.836;2023-05-31T08:06:57;3.17;;;1.35;;
31724;SDS011;18306;40.960;14.836;2023-05-31T08:09:24;1.35;;;1.25;;
31724;SDS011;18306;40.960;14.836;2023-05-31T08:11:52;4.47;;;1.90;;
31724;SDS011;18306;40.960;14.836;2023-05-31T08:14:19;2.75;;;1.83;;
31724;SDS011;18306;40.960;14.836;2023-05-31T08:16:46;2.20;;;1.40;;
31724;SDS011;18306;40.960;14.836;2023-05-31T08:19:15;1.70;;;1.60;;
31724;SDS011;18306;40.960;14.836;2023-05-31T08:21:42;4.25;;;1.15;;
31724;SDS011;18306;40.960;14.836;2023-05-31T08:24:11;3.65;;;1.52;;
31724;SDS011;18306;40.960;14.836;2023-05-31T08:26:38;2.55;;;1.58;;
31724;SDS011;18306;40.960;14.836;2023-05-31T08:29:06;3.80;;;1.23;;
31724;SDS011;18306;40.960;14.836;2023-05-31T08:31:33;3.55;;;1.15;;
31724;SDS011;18306;40.960;14.836;2023-05-31T08:34:02;2.22;;;1.50;;
31724;SDS011;18306;40.960;14.836;2023-05-31T08:36:29;3.55;;;2.03;;
31724;SDS011;18306;40.960;14.836;2023-05-31T08:38:56;6.85;;;2.22;;
31724;SDS011;18306;40.960;14.836;2023-05-31T08:41:25;2.88;;;1.85;;
31724;SDS011;18306;40.960;14.836;2023-05-31T08:43:58;1.40;;;1.30;;
31724;SDS011;18306;40.960;14.836;2023-05-31T08:46:26;3.08;;;1.77;;
31724;SDS011;18306;40.960;14.836;2023-05-31T08:48:57;2.47;;;1.73;;
31724;SDS011;18306;40.960;14.836;2023-05-31T08:51:34;2.03;;;1.52;;
31724;SDS011;18306;40.960;14.836;2023-05-31T08:54:12;3.63;;;1.80;;
31724;SDS011;18306;40.960;14.836;2023-05-31T08:56:46;3.88;;;1.98;;
31724;SDS011;18306;40.960;14.836;2023-05-31T08:59:25;9.70;;;1.83;;
31724;SDS011;18306;40.960;14.836;2023-05-31T09:01:56;4.55;;;2.10;;
31724;SDS011;18306;40.960;14.836;2023-05-31T09:04:27;3.38;;;2.03;;
31724;SDS011;18306;40.960;14.836;2023-05-31T09:06:54;4.38;;;1.83;;
31724;SDS011;18306;40.960;14.836;2023-05-31T09:09:21;2.85;;;1.65;;
31724;SDS011;18306;40.960;14.836;2023-05-31T09:11:48;3.33;;;1.83;;
31724;SDS011;18306;40.960;14.836;2023-05-31T09:14:15;4.63;;;2.10;;
31724;SDS011;18306;40.960;14.836;2023-05-31T09:16:42;2.60;;;2.25;;
31724;SDS011;18306;40.960;14.836;2023-05-31T09:19:09;2.30;;;1.80;;
31724;SDS011;18306;40.960;14.836;2023-05-31T09:21:40;4.03;;;1.83;;
31724;SDS011;18306;40.960;14.836;2023-05-31T09:24:10;3.47;;;1.83;;
31724;SDS011;18306;40.960;14.836;2023-05-31T09:26:48;3.22;;;1.92;;
31724;SDS011;18306;40.960;14.836;2023-05-31T09:29:16;2.95;;;2.17;;
31724;SDS011;18306;40.960;14.836;2023-05-31T09:31:44;3.55;;;1.92;;
31724;SDS011;18306;40.960;14.836;2023-05-31T09:34:24;8.10;;;2.40;;
31724;SDS011;18306;40.960;14.836;2023-05-31T09:36:57;4.30;;;2.03;;
31724;SDS011;18306;40.960;14.836;2023-05-31T09:39:24;2.42;;;1.55;;
31724;SDS011;18306;40.960;14.836;2023-05-31T09:41:52;2.90;;;1.80;;
31724;SDS011;18306;40.960;14.836;2023-05-31T09:44:19;4.47;;;2.47;;
31724;SDS011;18306;40.960;14.836;2023-05-31T09:46:53;7.93;;;2.38;;
31724;SDS011;18306;40.960;14.836;2023-05-31T09:49:21;2.53;;;1.90;;
31724;SDS011;18306;40.960;14.836;2023-05-31T09:51:50;3.40;;;1.80;;
31724;SDS011;18306;40.960;14.836;2023-05-31T09:54:21;2.65;;;1.70;;
31724;SDS011;18306;40.960;14.836;2023-05-31T09:56:52;2.50;;;1.80;;
31724;SDS011;18306;40.960;14.836;2023-05-31T09:59:19;3.42;;;1.85;;
31724;SDS011;18306;40.960;14.836;2023-05-31T10:01:47;2.20;;;2.00;;
31724;SDS011;18306;40.960;14.836;2023-05-31T10:04:16;2.63;;;1.70;;
31724;SDS011;18306;40.960;14.836;2023-05-31T10:06:43;3.40;;;2.35;;
31724;SDS011;18306;40.960;14.836;2023-05-31T10:09:11;2.83;;;2.08;;
31724;SDS011;18306;40.960;14.836;2023-05-31T10:11:40;2.70;;;2.42;;
31724;SDS011;18306;40.960;14.836;2023-05-31T10:14:20;3.45;;;2.00;;
31724;SDS011;18306;40.960;14.836;2023-05-31T10:16:58;6.00;;;2.33;;
31724;SDS011;18306;40.960;14.836;2023-05-31T10:19:33;3.63;;;2.67;;
31724;SDS011;18306;40.960;14.836;2023-05-31T10:22:03;3.20;;;2.03;;
31724;SDS011;18306;40.960;14.836;2023-05-31T10:24:40;4.03;;;2.60;;
31724;SDS011;18306;40.960;14.836;2023-05-31T10:27:29;2.88;;;1.98;;
31724;SDS011;18306;40.960;14.836;2023-05-31T10:30:08;3.53;;;1.88;;
31724;SDS011;18306;40.960;14.836;2023-05-31T10:32:42;5.05;;;2.33;;
31724;SDS011;18306;40.960;14.836;2023-05-31T10:35:12;3.88;;;2.10;;
31724;SDS011;18306;40.960;14.836;2023-05-31T10:37:39;2.13;;;1.77;;
31724;SDS011;18306;40.960;14.836;2023-05-31T10:43:00;2.85;;;2.38;;
31724;SDS011;18306;40.960;14.836;2023-05-31T10:45:42;2.72;;;2.28;;
31724;SDS011;18306;40.960;14.836;2023-05-31T10:48:39;10.07;;;3.55;;
31724;SDS011;18306;40.960;14.836;2023-05-31T10:51:45;3.88;;;2.30;;
31724;SDS011;18306;40.960;14.836;2023-05-31T10:54:19;4.38;;;2.67;;
31724;SDS011;18306;40.960;14.836;2023-05-31T10:56:53;4.00;;;2.40;;
31724;SDS011;18306;40.960;14.836;2023-05-31T10:59:25;2.83;;;2.38;;
31724;SDS011;18306;40.960;14.836;2023-05-31T11:01:53;3.78;;;2.42;;
31724;SDS011;18306;40.960;14.836;2023-05-31T11:04:22;5.10;;;3.00;;
31724;SDS011;18306;40.960;14.836;2023-05-31T11:06:51;4.60;;;3.22;;
31724;SDS011;18306;40.960;14.836;2023-05-31T11:09:38;6.97;;;2.65;;
31724;SDS011;18306;40.960;14.836;2023-05-31T11:12:06;4.38;;;2.65;;
31724;SDS011;18306;40.960;14.836;2023-05-31T11:14:33;7.45;;;3.17;;
31724;SDS011;18306;40.960;14.836;2023-05-31T11:19:30;4.20;;;2.45;;
31724;SDS011;18306;40.960;14.836;2023-05-31T11:22:07;3.95;;;2.60;;
31724;SDS011;18306;40.960;14.836;2023-05-31T11:24:48;11.43;;;4.20;;
31724;SDS011;18306;40.960;14.836;2023-05-31T11:27:17;10.07;;;3.88;;
31724;SDS011;18306;40.960;14.836;2023-05-31T11:32:19;5.85;;;3.17;;
31724;SDS011;18306;40.960;14.836;2023-05-31T11:35:05;6.43;;;3.92;;
31724;SDS011;18306;40.960;14.836;2023-05-31T11:37:37;4.03;;;2.65;;
31724;SDS011;18306;40.960;14.836;2023-05-31T11:40:07;8.88;;;3.10;;
31724;SDS011;18306;40.960;14.836;2023-05-31T11:42:36;5.72;;;2.60;;
31724;SDS011;18306;40.960;14.836;2023-05-31T11:45:14;10.10;;;3.58;;
31724;SDS011;18306;40.960;14.836;2023-05-31T11:50:49;6.45;;;3.53;;
31724;SDS011;18306;40.960;14.836;2023-05-31T12:07:10;7.05;;;3.22;;
31724;SDS011;18306;40.960;14.836;2023-05-31T12:09:38;8.50;;;4.18;;
31724;SDS011;18306;40.960;14.836;2023-05-31T12:12:05;6.80;;;3.75;;
31724;SDS011;18306;40.960;14.836;2023-05-31T12:14:33;6.53;;;3.58;;
31724;SDS011;18306;40.960;14.836;2023-05-31T12:17:01;8.63;;;3.45;;
31724;SDS011;18306;40.960;14.836;2023-05-31T12:19:30;6.10;;;3.97;;
31724;SDS011;18306;40.960;14.836;2023-05-31T12:21:57;8.40;;;4.20;;
31724;SDS011;18306;40.960;14.836;2023-05-31T12:24:25;6.50;;;4.15;;
31724;SDS011;18306;40.960;14.836;2023-05-31T12:26:52;8.75;;;4.80;;
31724;SDS011;18306;40.960;14.836;2023-05-31T12:29:25;9.40;;;4.45;;
31724;SDS011;18306;40.960;14.836;2023-05-31T12:32:02;7.05;;;4.75;;
31724;SDS011;18306;40.960;14.836;2023-05-31T12:34:32;9.90;;;4.63;;
31724;SDS011;18306;40.960;14.836;2023-05-31T12:37:04;9.25;;;3.70;;
31724;SDS011;18306;40.960;14.836;2023-05-31T12:39:33;5.50;;;3.97;;
31724;SDS011;18306;40.960;14.836;2023-05-31T12:42:00;5.05;;;3.60;;
31724;SDS011;18306;40.960;14.836;2023-05-31T12:44:28;9.70;;;4.72;;
31724;SDS011;18306;40.960;14.836;2023-05-31T12:47:00;9.32;;;3.53;;
31724;SDS011;18306;40.960;14.836;2023-05-31T12:49:28;7.53;;;4.20;;
31724;SDS011;18306;40.960;14.836;2023-05-31T12:52:03;6.82;;;4.25;;
31724;SDS011;18306;40.960;14.836;2023-05-31T12:54:38;6.45;;;3.45;;
31724;SDS011;18306;40.960;14.836;2023-05-31T12:57:07;7.65;;;4.20;;
31724;SDS011;18306;40.960;14.836;2023-05-31T12:59:35;8.05;;;3.38;;
31724;SDS011;18306;40.960;14.836;2023-05-31T13:02:04;8.25;;;4.10;;
31724;SDS011;18306;40.960;14.836;2023-05-31T13:04:31;10.50;;;3.08;;
31724;SDS011;18306;40.960;14.836;2023-05-31T13:07:00;2.80;;;2.38;;
31724;SDS011;18306;40.960;14.836;2023-05-31T13:09:30;9.52;;;2.45;;
31724;SDS011;18306;40.960;14.836;2023-05-31T13:11:58;7.93;;;2.22;;
31724;SDS011;18306;40.960;14.836;2023-05-31T13:14:25;2.97;;;1.92;;
31724;SDS011;18306;40.960;14.836;2023-05-31T13:16:52;2.42;;;1.92;;
31724;SDS011;18306;40.960;14.836;2023-05-31T13:19:20;3.30;;;2.00;;
31724;SDS011;18306;40.960;14.836;2023-05-31T13:21:50;5.43;;;2.00;;
31724;SDS011;18306;40.960;14.836;2023-05-31T13:24:18;3.33;;;2.30;;
31724;SDS011;18306;40.960;14.836;2023-05-31T13:26:46;3.75;;;1.95;;
31724;SDS011;18306;40.960;14.836;2023-05-31T13:29:13;6.18;;;2.80;;
31724;SDS011;18306;40.960;14.836;2023-05-31T13:31:40;3.28;;;2.15;;
31724;SDS011;18306;40.960;14.836;2023-05-31T13:34:07;4.40;;;2.30;;
31724;SDS011;18306;40.960;14.836;2023-05-31T13:36:34;4.63;;;2.78;;
31724;SDS011;18306;40.960;14.836;2023-05-31T13:39:05;3.88;;;2.63;;
31724;SDS011;18306;40.960;14.836;2023-05-31T13:41:36;6.75;;;2.65;;
31724;SDS011;18306;40.960;14.836;2023-05-31T13:44:09;5.25;;;3.05;;
31724;SDS011;18306;40.960;14.836;2023-05-31T13:46:39;4.05;;;2.38;;
31724;SDS011;18306;40.960;14.836;2023-05-31T13:49:07;2.85;;;1.77;;
31724;SDS011;18306;40.960;14.836;2023-05-31T13:51:35;2.58;;;1.55;;
31724;SDS011;18306;40.960;14.836;2023-05-31T13:54:03;3.63;;;1.83;;
31724;SDS011;18306;40.960;14.836;2023-05-31T13:56:30;3.28;;;1.88;;
31724;SDS011;18306;40.960;14.836;2023-05-31T13:58:58;3.33;;;2.13;;
31724;SDS011;18306;40.960;14.836;2023-05-31T14:01:25;3.58;;;1.60;;
31724;SDS011;18306;40.960;14.836;2023-05-31T14:03:52;3.20;;;1.80;;
31724;SDS011;18306;40.960;14.836;2023-05-31T14:06:20;6.15;;;2.35;;
31724;SDS011;18306;40.960;14.836;2023-05-31T14:08:47;4.72;;;2.40;;
31724;SDS011;18306;40.960;14.836;2023-05-31T14:11:14;8.43;;;2.58;;
31724;SDS011;18306;40.960;14.836;2023-05-31T14:13:42;3.95;;;2.22;;
31724;SDS011;18306;40.960;14.836;2023-05-31T14:16:09;2.58;;;2.03;;
31724;SDS011;18306;40.960;14.836;2023-05-31T14:18:37;6.07;;;2.35;;
31724;SDS011;18306;40.960;14.836;2023-05-31T14:21:03;2.53;;;1.65;;
31724;SDS011;18306;40.960;14.836;2023-05-31T14:23:31;2.45;;;1.77;;
31724;SDS011;18306;40.960;14.836;2023-05-31T14:25:58;3.53;;;1.90;;
31724;SDS011;18306;40.960;14.836;2023-05-31T14:28:25;6.07;;;2.83;;
31724;SDS011;18306;40.960;14.836;2023-05-31T14:30:51;3.38;;;1.92;;
31724;SDS011;18306;40.960;14.836;2023-05-31T14:33:19;4.40;;;2.67;;
31724;SDS011;18306;40.960;14.836;2023-05-31T14:35:46;9.80;;;2.60;;
31724;SDS011;18306;40.960;14.836;2023-05-31T14:38:15;4.03;;;2.35;;
31724;SDS011;18306;40.960;14.836;2023-05-31T14:40:42;4.78;;;2.92;;
31724;SDS011;18306;40.960;14.836;2023-05-31T14:43:09;7.53;;;2.97;;
31724;SDS011;18306;40.960;14.836;2023-05-31T14:45:36;8.65;;;3.08;;
31724;SDS011;18306;40.960;14.836;2023-05-31T14:48:03;4.63;;;2.35;;
31724;SDS011;18306;40.960;14.836;2023-05-31T14:50:30;9.13;;;2.92;;
31724;SDS011;18306;40.960;14.836;2023-05-31T14:52:57;4.38;;;2.55;;
31724;SDS011;18306;40.960;14.836;2023-05-31T14:55:24;9.35;;;2.83;;
31724;SDS011;18306;40.960;14.836;2023-05-31T14:57:50;9.57;;;3.13;;
31724;SDS011;18306;40.960;14.836;2023-05-31T15:00:18;5.50;;;3.15;;
31724;SDS011;18306;40.960;14.836;2023-05-31T15:02:45;4.40;;;2.90;;
31724;SDS011;18306;40.960;14.836;2023-05-31T15:05:13;7.43;;;2.83;;
31724;SDS011;18306;40.960;14.836;2023-05-31T15:07:40;11.20;;;3.58;;
31724;SDS011;18306;40.960;14.836;2023-05-31T15:10:07;4.93;;;2.97;;
31724;SDS011;18306;40.960;14.836;2023-05-31T15:12:34;7.63;;;3.75;;
31724;SDS011;18306;40.960;14.836;2023-05-31T15:15:01;11.48;;;4.15;;
31724;SDS011;18306;40.960;14.836;2023-05-31T15:17:29;7.28;;;3.63;;
31724;SDS011;18306;40.960;14.836;2023-05-31T15:19:56;5.18;;;3.67;;
31724;SDS011;18306;40.960;14.836;2023-05-31T15:22:23;7.25;;;3.42;;
31724;SDS011;18306;40.960;14.836;2023-05-31T15:24:50;5.43;;;4.22;;
31724;SDS011;18306;40.960;14.836;2023-05-31T15:27:17;8.07;;;3.67;;
31724;SDS011;18306;40.960;14.836;2023-05-31T15:29:44;6.35;;;3.85;;
31724;SDS011;18306;40.960;14.836;2023-05-31T15:32:11;9.52;;;3.95;;
31724;SDS011;18306;40.960;14.836;2023-05-31T15:34:41;5.57;;;3.90;;
31724;SDS011;18306;40.960;14.836;2023-05-31T15:37:08;4.72;;;3.15;;
31724;SDS011;18306;40.960;14.836;2023-05-31T15:39:35;8.57;;;4.43;;
31724;SDS011;18306;40.960;14.836;2023-05-31T15:42:03;7.55;;;3.40;;
31724;SDS011;18306;40.960;14.836;2023-05-31T15:44:32;6.78;;;3.30;;
31724;SDS011;18306;40.960;14.836;2023-05-31T15:46:59;4.90;;;2.65;;
31724;SDS011;18306;40.960;14.836;2023-05-31T15:49:26;4.50;;;3.05;;
31724;SDS011;18306;40.960;14.836;2023-05-31T15:51:53;7.05;;;3.67;;
31724;SDS011;18306;40.960;14.836;2023-05-31T15:54:21;10.25;;;3.88;;
31724;SDS011;18306;40.960;14.836;2023-05-31T15:56:50;7.53;;;3.10;;
31724;SDS011;18306;40.960;14.836;2023-05-31T15:59:19;7.03;;;3.65;;
31724;SDS011;18306;40.960;14.836;2023-05-31T16:01:46;5.07;;;3.95;;
31724;SDS011;18306;40.960;14.836;2023-05-31T16:04:13;5.75;;;3.95;;
31724;SDS011;18306;40.960;14.836;2023-05-31T16:06:40;7.78;;;3.90;;
31724;SDS011;18306;40.960;14.836;2023-05-31T16:09:08;5.80;;;3.40;;
31724;SDS011;18306;40.960;14.836;2023-05-31T16:11:34;3.63;;;2.28;;
31724;SDS011;18306;40.960;14.836;2023-05-31T16:14:02;6.22;;;2.85;;
31724;SDS011;18306;40.960;14.836;2023-05-31T16:16:29;4.32;;;2.53;;
31724;SDS011;18306;40.960;14.836;2023-05-31T16:19:07;3.10;;;2.40;;
31724;SDS011;18306;40.960;14.836;2023-05-31T16:38:03;6.15;;;2.22;;